Terminal Aerodrome Forecast
Issued by NWS

Home | Current Version | Previous Version | Graphics & Text | Print | Product List | Glossary On
Versions: 1 2 3 4 5 6 7 8 9 10 11 12 13 14 15 16 17 18 19 20 21 22 23 24 25 26 27 28 29 30 31 32 33 34 35 36 37 38 39 40 41 42 43 44 45 46 47 48 49 50
830
FTUS43 KGRB 201526 AAD
TAFRHI
TAF AMD
KRHI 201526Z 2015/2112 14010G14KT P6SM OVC008
      TEMPO 2016/2017 BKN012
     FM201700 15010G16KT P6SM BKN015
     FM201900 17010G16KT P6SM SCT015 BKN070
     FM202100 18009KT P6SM VCTS BKN015CB
     FM210200 32004KT P6SM SCT012 BKN035
     FM210600 34004KT 5SM BR BKN010
     FM210800 04004KT 2SM BR BKN006=

USA.gov is the U.S. government's official web portal to all federal, state and local government web resources and services.